Aviation Digital Data Service (ADDS)

Output produced by METARs form (1355 UTC 19 February 2020)
found at http://aviationweather.gov/metar/data/
 
KRYY 191350Z 32008KT 4SM BR OVC007 08/07 A3026 RMK AO2 RAE05 SLP967 T00830072 PNO $
KRYY 191125Z 1912/2012 31004KT 6SM -SHRA BR OVC004 
     FM191400 33006KT P6SM VCSH OVC008 
     FM191600 33006KT P6SM OVC015 
     FM192000 03005KT P6SM OVC025 
     FM192300 06007KT P6SM OVC018 
     FM200900 08009KT P6SM -RA OVC009
       
KPUJ 191335Z AUTO 34008KT 7SM OVC005 07/07 A3024 RMK AO2
KCNI 191330Z AUTO 29006KT 10SM OVC003 08/08 A3025 RMK AO2
KPDK 191353Z 31004KT 10SM BKN005 OVC030 09/08 A3023 RMK AO2 RAB1255E10 SLP240 P0000 T00890083
KPDK 191125Z 1912/2012 30007KT 6SM -SHRA BR OVC006 
     TEMPO 1912/1914 BKN004 
     FM191600 34005KT P6SM VCSH OVC015 
     FM192000 05007KT P6SM OVC025 
     FM200900 07009KT P6SM -RA OVC009
       
KRMG 191353Z AUTO 36006KT 10SM OVC043 09/06 A3029 RMK AO2 SLP253 T00940056
KATL 191352Z 30008KT 1 1/2SM OVC004 10/08 A3024 RMK AO2 SFC VIS 7 SLP239 CIG 003V005 TWRINC T01000083
KATL 191228Z 1912/2018 32010KT 6SM BR VCSH BKN005 OVC015 
     FM191600 34007KT P6SM OVC018 
     FM191900 04007KT P6SM OVC025 
     FM200800 07010KT 6SM -RA BR OVC009 
     FM201300 07011G18KT 4SM RA BR OVC008
       
KFFC 191353Z AUTO 33008KT 10SM OVC007 12/09 A3025 RMK AO2 SLP243 T01170094
KGAD 191314Z AUTO 36006KT 10SM OVC030 09/07 A3030 RMK AO2
KCHA 191353Z 35009KT 10SM SCT027 BKN090 BKN200 BKN250 09/04 A3033 RMK AO2 SLP270 T00890044
KCHA 191137Z 1912/2012 01011KT P6SM SCT030 BKN090 
     FM192300 02006KT P6SM OVC040 
     FM201000 01006KT P6SM FEW025 OVC035 
     PROB30 2010/2012 -RA OVC025
       
KDNN 191335Z AUTO 33013KT 10SM SCT014 SCT090 09/06 A3030 RMK AO2
KAHN 191351Z 28005KT 10SM BKN006 OVC025 14/12 A3020 RMK AO2 CIG 005V009 SLP227 T01390122
KAHN 191250Z 1913/2012 29004KT 6SM BR VCSH BKN006 OVC020 
     FM191600 05007KT P6SM OVC007 
     FM191800 06008KT P6SM OVC012 
     FM192100 06009KT P6SM OVC025 
     FM201100 06009KT P6SM -RA OVC008
       
KLZU 191256Z 27005KT 10SM BKN006 10/10 A3021 RMK AO2 SLP241 T01000100